sensor_id;sensor_type;location;lat;lon;timestamp;pressure;altitude;pressure_sealevel;temperature;humidity
64753;BME280;74649;52.358;17.020;2023-12-20T00:01:37;99861.28;;;12.17;53.85
64753;BME280;74649;52.358;17.020;2023-12-20T00:06:38;99856.94;;;12.16;54.18
64753;BME280;74649;52.358;17.020;2023-12-20T00:11:38;99842.94;;;12.14;53.89
64753;BME280;74649;52.358;17.020;2023-12-20T00:16:40;99843.84;;;12.13;53.83
64753;BME280;74649;52.358;17.020;2023-12-20T00:21:40;99835.13;;;12.11;54.06
64753;BME280;74649;52.358;17.020;2023-12-20T00:26:40;99836.06;;;12.10;53.89
64753;BME280;74649;52.358;17.020;2023-12-20T00:31:42;99846.66;;;12.10;53.99
64753;BME280;74649;52.358;17.020;2023-12-20T00:36:42;99845.00;;;12.07;53.95
64753;BME280;74649;52.358;17.020;2023-12-20T00:41:43;99837.06;;;12.07;54.13
64753;BME280;74649;52.358;17.020;2023-12-20T00:46:44;99833.66;;;12.05;54.15
64753;BME280;74649;52.358;17.020;2023-12-20T00:51:45;99834.56;;;12.04;53.94
64753;BME280;74649;52.358;17.020;2023-12-20T00:56:45;99833.72;;;12.04;54.17
64753;BME280;74649;52.358;17.020;2023-12-20T01:01:47;99836.44;;;12.02;54.10
64753;BME280;74649;52.358;17.020;2023-12-20T01:06:47;99834.69;;;12.01;53.85
64753;BME280;74649;52.358;17.020;2023-12-20T01:11:47;99825.91;;;12.01;54.35
64753;BME280;74649;52.358;17.020;2023-12-20T01:16:49;99815.41;;;11.99;54.24
64753;BME280;74649;52.358;17.020;2023-12-20T01:21:49;99823.31;;;11.99;54.03
64753;BME280;74649;52.358;17.020;2023-12-20T01:26:50;99822.53;;;11.97;54.19
64753;BME280;74649;52.358;17.020;2023-12-20T01:31:51;99829.56;;;11.98;54.24
64753;BME280;74649;52.358;17.020;2023-12-20T01:36:52;99812.97;;;11.95;54.11
64753;BME280;74649;52.358;17.020;2023-12-20T01:41:52;99808.53;;;11.95;54.24
64753;BME280;74649;52.358;17.020;2023-12-20T01:46:54;99792.75;;;11.94;54.29
64753;BME280;74649;52.358;17.020;2023-12-20T01:51:54;99778.69;;;11.93;54.25
64753;BME280;74649;52.358;17.020;2023-12-20T01:56:55;99793.69;;;11.93;54.28
64753;BME280;74649;52.358;17.020;2023-12-20T02:01:57;99791.97;;;11.92;54.38
64753;BME280;74649;52.358;17.020;2023-12-20T02:06:58;99774.41;;;11.91;54.12
64753;BME280;74649;52.358;17.020;2023-12-20T02:12:00;99775.31;;;11.90;54.13
64753;BME280;74649;52.358;17.020;2023-12-20T02:17:02;99770.97;;;11.89;54.47
64753;BME280;74649;52.358;17.020;2023-12-20T02:22:08;99777.19;;;11.88;54.38
64753;BME280;74649;52.358;17.020;2023-12-20T02:27:08;99764.91;;;11.87;54.46
64753;BME280;74649;52.358;17.020;2023-12-20T02:32:09;99764.97;;;11.85;54.24
64753;BME280;74649;52.358;17.020;2023-12-20T02:37:10;99763.25;;;11.84;54.33
64753;BME280;74649;52.358;17.020;2023-12-20T02:42:11;99757.19;;;11.82;54.08
64753;BME280;74649;52.358;17.020;2023-12-20T02:47:11;99744.06;;;11.80;54.43
64753;BME280;74649;52.358;17.020;2023-12-20T02:52:13;99746.69;;;11.80;54.34
64753;BME280;74649;52.358;17.020;2023-12-20T02:57:13;99753.78;;;11.80;54.21
64753;BME280;74649;52.358;17.020;2023-12-20T03:02:13;99757.34;;;11.79;54.26
64753;BME280;74649;52.358;17.020;2023-12-20T03:07:15;99755.63;;;11.78;54.18
64753;BME280;74649;52.358;17.020;2023-12-20T03:12:15;99739.84;;;11.76;54.37
64753;BME280;74649;52.358;17.020;2023-12-20T03:17:16;99736.34;;;11.76;54.09
64753;BME280;74649;52.358;17.020;2023-12-20T03:22:17;99736.41;;;11.74;54.57
64753;BME280;74649;52.358;17.020;2023-12-20T03:27:18;99734.69;;;11.73;54.22
64753;BME280;74649;52.358;17.020;2023-12-20T03:32:18;99731.28;;;11.71;54.53
64753;BME280;74649;52.358;17.020;2023-12-20T03:37:21;99726.91;;;11.70;54.37
64753;BME280;74649;52.358;17.020;2023-12-20T03:42:22;99735.78;;;11.69;54.33
64753;BME280;74649;52.358;17.020;2023-12-20T03:47:22;99737.56;;;11.69;54.27
64753;BME280;74649;52.358;17.020;2023-12-20T03:52:24;99735.84;;;11.68;54.51
64753;BME280;74649;52.358;17.020;2023-12-20T03:57:24;99724.44;;;11.67;54.46
64753;BME280;74649;52.358;17.020;2023-12-20T04:02:24;99719.22;;;11.66;54.54
64753;BME280;74649;52.358;17.020;2023-12-20T04:07:26;99721.94;;;11.64;54.40
64753;BME280;74649;52.358;17.020;2023-12-20T04:12:27;99730.78;;;11.63;54.46
64753;BME280;74649;52.358;17.020;2023-12-20T04:17:28;99722.94;;;11.62;54.56
64753;BME280;74649;52.358;17.020;2023-12-20T04:22:29;99722.06;;;11.61;54.45
64753;BME280;74649;52.358;17.020;2023-12-20T04:27:30;99722.06;;;11.61;54.64
64753;BME280;74649;52.358;17.020;2023-12-20T04:32:30;99712.44;;;11.60;54.48
64753;BME280;74649;52.358;17.020;2023-12-20T04:37:32;99716.00;;;11.59;54.28
64753;BME280;74649;52.358;17.020;2023-12-20T04:42:32;99706.44;;;11.57;54.75
64753;BME280;74649;52.358;17.020;2023-12-20T04:47:32;99704.66;;;11.57;54.54
64753;BME280;74649;52.358;17.020;2023-12-20T04:52:34;99709.16;;;11.55;54.68
64753;BME280;74649;52.358;17.020;2023-12-20T04:57:34;99702.13;;;11.54;54.52
64753;BME280;74649;52.358;17.020;2023-12-20T05:02:35;99707.00;;;11.99;54.40
64753;BME280;74649;52.358;17.020;2023-12-20T05:07:37;99696.00;;;13.59;53.57
64753;BME280;74649;52.358;17.020;2023-12-20T05:12:37;99690.91;;;14.48;52.81
64753;BME280;74649;52.358;17.020;2023-12-20T05:17:37;99693.00;;;14.57;53.22
64753;BME280;74649;52.358;17.020;2023-12-20T05:22:41;99699.63;;;14.50;53.77
64753;BME280;74649;52.358;17.020;2023-12-20T05:27:41;99695.53;;;14.44;54.33
64753;BME280;74649;52.358;17.020;2023-12-20T05:32:41;99701.88;;;14.42;54.47
64753;BME280;74649;52.358;17.020;2023-12-20T05:37:43;99706.50;;;14.38;54.16
64753;BME280;74649;52.358;17.020;2023-12-20T05:42:43;99696.75;;;14.39;54.10
64753;BME280;74649;52.358;17.020;2023-12-20T05:47:44;99701.53;;;14.48;53.48
64753;BME280;74649;52.358;17.020;2023-12-20T05:52:46;99699.44;;;14.53;53.81
64753;BME280;74649;52.358;17.020;2023-12-20T05:57:46;99699.16;;;14.57;53.62
64753;BME280;74649;52.358;17.020;2023-12-20T06:02:46;99697.84;;;14.50;53.74
64753;BME280;74649;52.358;17.020;2023-12-20T06:07:48;99695.28;;;14.33;53.85
64753;BME280;74649;52.358;17.020;2023-12-20T06:12:48;99708.03;;;14.12;54.26
64753;BME280;74649;52.358;17.020;2023-12-20T06:17:49;99692.25;;;13.95;54.18
64753;BME280;74649;52.358;17.020;2023-12-20T06:22:50;99691.25;;;13.80;54.06
64753;BME280;74649;52.358;17.020;2023-12-20T06:27:51;99692.06;;;13.66;54.25
64753;BME280;74649;52.358;17.020;2023-12-20T06:32:51;99690.94;;;13.55;54.29
64753;BME280;74649;52.358;17.020;2023-12-20T06:37:53;99707.44;;;13.44;54.26
64753;BME280;74649;52.358;17.020;2023-12-20T06:42:53;99716.50;;;13.56;54.28
64753;BME280;74649;52.358;17.020;2023-12-20T06:47:54;99704.53;;;14.42;53.73
64753;BME280;74649;52.358;17.020;2023-12-20T06:52:55;99695.00;;;14.67;53.50
64753;BME280;74649;52.358;17.020;2023-12-20T06:57:56;99715.03;;;14.73;53.45
64753;BME280;74649;52.358;17.020;2023-12-20T07:02:56;99727.34;;;14.74;54.09
64753;BME280;74649;52.358;17.020;2023-12-20T07:07:58;99720.16;;;14.76;53.84
64753;BME280;74649;52.358;17.020;2023-12-20T07:12:59;99728.13;;;14.76;53.85
64753;BME280;74649;52.358;17.020;2023-12-20T07:17:59;99731.53;;;14.78;54.13
64753;BME280;74649;52.358;17.020;2023-12-20T07:23:01;99737.69;;;14.79;53.62
64753;BME280;74649;52.358;17.020;2023-12-20T07:28:01;99750.50;;;14.72;53.61
64753;BME280;74649;52.358;17.020;2023-12-20T07:33:02;99760.44;;;14.68;53.25
64753;BME280;74649;52.358;17.020;2023-12-20T07:38:04;99757.13;;;14.65;53.22
64753;BME280;74649;52.358;17.020;2023-12-20T07:43:04;99759.19;;;14.60;53.37
64753;BME280;74649;52.358;17.020;2023-12-20T07:48:06;99759.38;;;14.57;53.07
64753;BME280;74649;52.358;17.020;2023-12-20T07:53:08;99756.22;;;14.50;52.80
64753;BME280;74649;52.358;17.020;2023-12-20T07:58:09;99750.75;;;14.38;53.25
64753;BME280;74649;52.358;17.020;2023-12-20T08:03:09;99753.94;;;14.28;53.29
64753;BME280;74649;52.358;17.020;2023-12-20T08:08:11;99746.00;;;14.28;53.22
64753;BME280;74649;52.358;17.020;2023-12-20T08:13:12;99726.41;;;15.34;52.56
64753;BME280;74649;52.358;17.020;2023-12-20T08:18:12;99721.22;;;16.54;51.63
64753;BME280;74649;52.358;17.020;2023-12-20T08:23:14;99706.94;;;17.69;50.94
64753;BME280;74649;52.358;17.020;2023-12-20T08:28:15;99722.53;;;18.71;50.90
64753;BME280;74649;52.358;17.020;2023-12-20T08:33:15;99723.59;;;19.59;50.77
64753;BME280;74649;52.358;17.020;2023-12-20T08:38:17;99713.38;;;20.19;50.08
64753;BME280;74649;52.358;17.020;2023-12-20T08:43:18;99723.63;;;20.03;50.33
64753;BME280;74649;52.358;17.020;2023-12-20T08:48:21;99722.84;;;19.24;50.94
64753;BME280;74649;52.358;17.020;2023-12-20T08:53:22;99727.63;;;18.50;51.47
64753;BME280;74649;52.358;17.020;2023-12-20T08:58:23;99736.22;;;17.95;50.99
64753;BME280;74649;52.358;17.020;2023-12-20T09:03:23;99733.31;;;17.48;51.00
64753;BME280;74649;52.358;17.020;2023-12-20T09:08:25;99744.88;;;17.11;51.03
64753;BME280;74649;52.358;17.020;2023-12-20T09:13:25;99735.44;;;16.80;51.50
64753;BME280;74649;52.358;17.020;2023-12-20T09:18:26;99723.88;;;16.54;51.56
64753;BME280;74649;52.358;17.020;2023-12-20T09:23:27;99713.84;;;16.32;51.72
64753;BME280;74649;52.358;17.020;2023-12-20T09:28:28;99717.69;;;16.14;51.67
64753;BME280;74649;52.358;17.020;2023-12-20T09:33:29;99723.19;;;15.98;52.12
64753;BME280;74649;52.358;17.020;2023-12-20T09:38:30;99712.56;;;15.84;52.14
64753;BME280;74649;52.358;17.020;2023-12-20T09:43:35;99711.53;;;15.72;51.81
64753;BME280;74649;52.358;17.020;2023-12-20T09:48:37;99714.88;;;15.61;51.96
64753;BME280;74649;52.358;17.020;2023-12-20T09:53:41;99707.59;;;15.51;52.48
64753;BME280;74649;52.358;17.020;2023-12-20T09:58:42;99710.84;;;15.42;52.58
64753;BME280;74649;52.358;17.020;2023-12-20T10:03:43;99693.56;;;15.35;52.24
64753;BME280;74649;52.358;17.020;2023-12-20T10:08:48;99686.03;;;15.27;52.26
64753;BME280;74649;52.358;17.020;2023-12-20T10:13:49;99683.03;;;15.19;52.04
64753;BME280;74649;52.358;17.020;2023-12-20T10:18:49;99672.88;;;15.11;52.03
64753;BME280;74649;52.358;17.020;2023-12-20T10:23:52;99664.53;;;15.03;51.77
64753;BME280;74649;52.358;17.020;2023-12-20T10:28:53;99666.88;;;14.93;51.78
64753;BME280;74649;52.358;17.020;2023-12-20T10:33:56;99661.56;;;14.93;51.46
64753;BME280;74649;52.358;17.020;2023-12-20T10:38:59;99656.44;;;14.90;51.78
64753;BME280;74649;52.358;17.020;2023-12-20T10:44:00;99651.31;;;14.87;51.68
64753;BME280;74649;52.358;17.020;2023-12-20T10:49:02;99652.19;;;14.88;51.45
64753;BME280;74649;52.358;17.020;2023-12-20T10:54:04;99652.94;;;14.90;51.11
64753;BME280;74649;52.358;17.020;2023-12-20T10:59:06;99643.91;;;14.92;50.98
64753;BME280;74649;52.358;17.020;2023-12-20T11:04:16;99636.72;;;14.94;51.16
64753;BME280;74649;52.358;17.020;2023-12-20T11:09:24;99620.00;;;14.92;51.18
64753;BME280;74649;52.358;17.020;2023-12-20T11:14:29;99611.47;;;14.87;50.74
64753;BME280;74649;52.358;17.020;2023-12-20T11:19:36;99607.19;;;14.85;51.03
64753;BME280;74649;52.358;17.020;2023-12-20T11:24:44;99599.41;;;14.82;50.32
64753;BME280;74649;52.358;17.020;2023-12-20T11:29:51;99588.13;;;14.78;50.28
64753;BME280;74649;52.358;17.020;2023-12-20T11:34:53;99583.56;;;14.80;50.18
64753;BME280;74649;52.358;17.020;2023-12-20T11:39:56;99567.63;;;14.80;50.38
64753;BME280;74649;52.358;17.020;2023-12-20T11:45:02;99565.63;;;14.84;50.21
64753;BME280;74649;52.358;17.020;2023-12-20T11:50:03;99561.19;;;14.84;50.48
64753;BME280;74649;52.358;17.020;2023-12-20T11:55:05;99564.63;;;14.86;50.74
64753;BME280;74649;52.358;17.020;2023-12-20T12:00:14;99549.53;;;14.87;50.48
64753;BME280;74649;52.358;17.020;2023-12-20T12:05:14;99543.38;;;14.86;50.49
64753;BME280;74649;52.358;17.020;2023-12-20T12:10:16;99533.97;;;14.81;50.70
64753;BME280;74649;52.358;17.020;2023-12-20T12:15:17;99523.44;;;14.79;50.83
64753;BME280;74649;52.358;17.020;2023-12-20T12:20:20;99518.31;;;14.76;50.65
64753;BME280;74649;52.358;17.020;2023-12-20T12:25:24;99512.16;;;14.76;50.83
64753;BME280;74649;52.358;17.020;2023-12-20T12:30:25;99509.59;;;14.74;50.50
64753;BME280;74649;52.358;17.020;2023-12-20T12:35:25;99500.78;;;14.74;50.78
64753;BME280;74649;52.358;17.020;2023-12-20T12:40:27;99491.31;;;14.70;50.87
64753;BME280;74649;52.358;17.020;2023-12-20T12:45:28;99478.88;;;14.70;50.53
64753;BME280;74649;52.358;17.020;2023-12-20T12:50:28;99476.34;;;14.68;50.67
64753;BME280;74649;52.358;17.020;2023-12-20T12:55:30;99473.69;;;14.68;50.90
64753;BME280;74649;52.358;17.020;2023-12-20T13:00:30;99472.94;;;14.66;50.76
64753;BME280;74649;52.358;17.020;2023-12-20T13:05:30;99462.31;;;14.66;50.98
64753;BME280;74649;52.358;17.020;2023-12-20T13:10:32;99468.97;;;14.59;50.83
64753;BME280;74649;52.358;17.020;2023-12-20T13:15:32;99459.78;;;14.51;50.78
64753;BME280;74649;52.358;17.020;2023-12-20T13:20:33;99462.91;;;14.43;50.76
64753;BME280;74649;52.358;17.020;2023-12-20T13:25:34;99451.06;;;14.34;50.87
64753;BME280;74649;52.358;17.020;2023-12-20T13:30:35;99437.41;;;14.26;50.86
64753;BME280;74649;52.358;17.020;2023-12-20T13:35:40;99429.09;;;14.18;51.08
64753;BME280;74649;52.358;17.020;2023-12-20T13:40:41;99429.47;;;14.12;51.25
64753;BME280;74649;52.358;17.020;2023-12-20T13:45:42;99423.72;;;14.06;51.27
64753;BME280;74649;52.358;17.020;2023-12-20T13:50:42;99428.44;;;14.00;51.01
64753;BME280;74649;52.358;17.020;2023-12-20T13:55:44;99412.91;;;13.94;51.28
64753;BME280;74649;52.358;17.020;2023-12-20T14:00:44;99401.72;;;13.89;50.90
64753;BME280;74649;52.358;17.020;2023-12-20T14:05:44;99408.22;;;13.84;51.33
64753;BME280;74649;52.358;17.020;2023-12-20T14:10:46;99405.09;;;13.77;51.22
64753;BME280;74649;52.358;17.020;2023-12-20T14:15:46;99405.38;;;13.72;50.99
64753;BME280;74649;52.358;17.020;2023-12-20T14:20:47;99396.75;;;13.69;51.22
64753;BME280;74649;52.358;17.020;2023-12-20T14:25:49;99389.09;;;13.64;51.38
64753;BME280;74649;52.358;17.020;2023-12-20T14:30:50;99399.13;;;13.59;51.43
64753;BME280;74649;52.358;17.020;2023-12-20T14:35:50;99384.25;;;13.57;51.53
64753;BME280;74649;52.358;17.020;2023-12-20T14:40:52;99383.59;;;13.53;51.18
64753;BME280;74649;52.358;17.020;2023-12-20T14:45:53;99374.13;;;13.49;51.11
64753;BME280;74649;52.358;17.020;2023-12-20T14:50:53;99359.34;;;13.45;51.46
64753;BME280;74649;52.358;17.020;2023-12-20T14:55:55;99350.81;;;13.40;51.15
64753;BME280;74649;52.358;17.020;2023-12-20T15:00:55;99346.63;;;13.36;51.45
64753;BME280;74649;52.358;17.020;2023-12-20T15:05:55;99342.47;;;13.32;51.73
64753;BME280;74649;52.358;17.020;2023-12-20T15:10:57;99339.16;;;13.28;51.69
64753;BME280;74649;52.358;17.020;2023-12-20T15:15:58;99340.28;;;13.24;51.67
64753;BME280;74649;52.358;17.020;2023-12-20T15:20:58;99320.22;;;13.20;51.38
64753;BME280;74649;52.358;17.020;2023-12-20T15:26:00;99358.34;;;13.18;51.37
64753;BME280;74649;52.358;17.020;2023-12-20T15:31:00;99344.44;;;13.14;51.43
64753;BME280;74649;52.358;17.020;2023-12-20T15:36:00;99347.38;;;13.09;51.78
64753;BME280;74649;52.358;17.020;2023-12-20T15:41:02;99363.44;;;13.06;51.50
64753;BME280;74649;52.358;17.020;2023-12-20T15:46:03;99358.41;;;13.02;51.73
64753;BME280;74649;52.358;17.020;2023-12-20T15:51:04;99332.97;;;12.99;51.56
64753;BME280;74649;52.358;17.020;2023-12-20T15:56:06;99334.06;;;12.95;51.54
64753;BME280;74649;52.358;17.020;2023-12-20T16:01:07;99338.59;;;12.93;51.53
64753;BME280;74649;52.358;17.020;2023-12-20T16:06:08;99329.91;;;12.91;51.94
64753;BME280;74649;52.358;17.020;2023-12-20T16:11:10;99316.75;;;12.90;51.99
64753;BME280;74649;52.358;17.020;2023-12-20T16:16:11;99323.06;;;12.87;51.81
64753;BME280;74649;52.358;17.020;2023-12-20T16:21:11;99409.59;;;12.87;51.94
64753;BME280;74649;52.358;17.020;2023-12-20T16:26:13;99385.09;;;12.83;52.03
64753;BME280;74649;52.358;17.020;2023-12-20T16:31:13;99357.19;;;12.77;52.20
64753;BME280;74649;52.358;17.020;2023-12-20T16:36:13;99345.91;;;12.74;51.88
64753;BME280;74649;52.358;17.020;2023-12-20T16:41:15;99354.84;;;12.71;52.30
64753;BME280;74649;52.358;17.020;2023-12-20T16:46:15;99355.88;;;12.69;52.09
64753;BME280;74649;52.358;17.020;2023-12-20T16:51:16;99352.56;;;12.65;51.88
64753;BME280;74649;52.358;17.020;2023-12-20T16:56:17;99364.09;;;12.64;52.06
64753;BME280;74649;52.358;17.020;2023-12-20T17:01:18;99366.91;;;12.61;51.85
64753;BME280;74649;52.358;17.020;2023-12-20T17:06:18;99368.88;;;12.58;52.18
64753;BME280;74649;52.358;17.020;2023-12-20T17:11:20;99381.44;;;12.54;51.89
64753;BME280;74649;52.358;17.020;2023-12-20T17:16:20;99371.03;;;12.51;52.10
64753;BME280;74649;52.358;17.020;2023-12-20T17:21:21;99366.72;;;12.48;51.98
64753;BME280;74649;52.358;17.020;2023-12-20T17:26:22;99354.63;;;12.44;52.15
64753;BME280;74649;52.358;17.020;2023-12-20T17:31:23;99370.66;;;12.41;52.21
64753;BME280;74649;52.358;17.020;2023-12-20T17:36:23;99357.69;;;12.37;51.85
64753;BME280;74649;52.358;17.020;2023-12-20T17:41:25;99369.47;;;12.31;51.73
64753;BME280;74649;52.358;17.020;2023-12-20T17:46:25;99374.94;;;12.28;51.69
64753;BME280;74649;52.358;17.020;2023-12-20T17:51:25;99375.19;;;12.24;51.69
64753;BME280;74649;52.358;17.020;2023-12-20T17:56:28;99380.75;;;12.19;52.11
64753;BME280;74649;52.358;17.020;2023-12-20T18:01:28;99390.63;;;12.15;51.61
64753;BME280;74649;52.358;17.020;2023-12-20T18:06:28;99395.16;;;12.13;51.88
64753;BME280;74649;52.358;17.020;2023-12-20T18:11:30;99401.56;;;12.09;51.52
64753;BME280;74649;52.358;17.020;2023-12-20T18:16:30;99409.66;;;12.06;51.83
64753;BME280;74649;52.358;17.020;2023-12-20T18:21:31;99411.53;;;12.04;51.94
64753;BME280;74649;52.358;17.020;2023-12-20T18:26:32;99432.81;;;12.01;51.51
64753;BME280;74649;52.358;17.020;2023-12-20T18:31:33;99430.34;;;11.98;51.64
64753;BME280;74649;52.358;17.020;2023-12-20T18:36:33;99441.06;;;11.95;51.84
64753;BME280;74649;52.358;17.020;2023-12-20T18:41:35;99455.31;;;11.93;51.52
64753;BME280;74649;52.358;17.020;2023-12-20T18:46:35;99451.13;;;11.89;51.81
64753;BME280;74649;52.358;17.020;2023-12-20T18:51:35;99444.22;;;11.86;51.50
64753;BME280;74649;52.358;17.020;2023-12-20T18:56:37;99445.22;;;11.83;51.77
64753;BME280;74649;52.358;17.020;2023-12-20T19:01:37;99451.44;;;11.82;51.50
64753;BME280;74649;52.358;17.020;2023-12-20T19:06:38;99450.69;;;11.80;51.73
64753;BME280;74649;52.358;17.020;2023-12-20T19:11:39;99455.19;;;11.78;51.54
64753;BME280;74649;52.358;17.020;2023-12-20T19:16:40;99451.84;;;11.75;51.76
64753;BME280;74649;52.358;17.020;2023-12-20T19:21:40;99468.66;;;11.74;51.68
64753;BME280;74649;52.358;17.020;2023-12-20T19:26:42;99459.09;;;11.71;51.64
64753;BME280;74649;52.358;17.020;2023-12-20T19:31:42;99452.09;;;11.70;51.88
64753;BME280;74649;52.358;17.020;2023-12-20T19:36:42;99448.69;;;11.68;51.66
64753;BME280;74649;52.358;17.020;2023-12-20T19:41:44;99453.28;;;11.65;51.81
64753;BME280;74649;52.358;17.020;2023-12-20T19:46:44;99462.13;;;11.64;51.67
64753;BME280;74649;52.358;17.020;2023-12-20T19:51:45;99446.44;;;11.61;51.68
64753;BME280;74649;52.358;17.020;2023-12-20T19:56:46;99443.97;;;11.58;51.47
64753;BME280;74649;52.358;17.020;2023-12-20T20:01:47;99450.25;;;11.55;51.82
64753;BME280;74649;52.358;17.020;2023-12-20T20:06:47;99451.16;;;11.54;51.63
64753;BME280;74649;52.358;17.020;2023-12-20T20:11:49;99445.09;;;11.52;51.64
64753;BME280;74649;52.358;17.020;2023-12-20T20:16:49;99436.47;;;11.48;51.57
64753;BME280;74649;52.358;17.020;2023-12-20T20:21:49;99439.19;;;11.47;51.91
64753;BME280;74649;52.358;17.020;2023-12-20T20:26:51;99435.75;;;11.45;51.91
64753;BME280;74649;52.358;17.020;2023-12-20T20:31:51;99439.41;;;11.42;51.75
64753;BME280;74649;52.358;17.020;2023-12-20T20:36:52;99444.75;;;11.41;51.64
64753;BME280;74649;52.358;17.020;2023-12-20T20:41:53;99458.03;;;11.39;51.71
64753;BME280;74649;52.358;17.020;2023-12-20T20:46:54;99460.84;;;11.36;51.78
64753;BME280;74649;52.358;17.020;2023-12-20T20:51:54;99466.19;;;11.35;51.62
64753;BME280;74649;52.358;17.020;2023-12-20T20:56:56;99472.50;;;11.32;51.77
64753;BME280;74649;52.358;17.020;2023-12-20T21:01:56;99476.94;;;11.32;52.08
64753;BME280;74649;52.358;17.020;2023-12-20T21:06:57;99474.44;;;11.29;51.79
64753;BME280;74649;52.358;17.020;2023-12-20T21:11:58;99465.75;;;11.27;52.16
64753;BME280;74649;52.358;17.020;2023-12-20T21:16:59;99471.94;;;11.26;51.75
64753;BME280;74649;52.358;17.020;2023-12-20T21:21:59;99468.53;;;11.23;51.60
64753;BME280;74649;52.358;17.020;2023-12-20T21:27:01;99462.41;;;11.23;51.82
64753;BME280;74649;52.358;17.020;2023-12-20T21:32:01;99452.84;;;11.20;52.06
64753;BME280;74649;52.358;17.020;2023-12-20T21:37:02;99453.84;;;11.18;51.75
64753;BME280;74649;52.358;17.020;2023-12-20T21:42:04;99447.72;;;11.17;51.77
64753;BME280;74649;52.358;17.020;2023-12-20T21:47:05;99461.94;;;11.15;51.86
64753;BME280;74649;52.358;17.020;2023-12-20T21:52:05;99454.94;;;11.14;51.68
64753;BME280;74649;52.358;17.020;2023-12-20T21:57:07;99447.09;;;11.12;51.77
64753;BME280;74649;52.358;17.020;2023-12-20T22:02:07;99448.97;;;11.10;52.07
64753;BME280;74649;52.358;17.020;2023-12-20T22:07:07;99430.56;;;11.09;51.75
64753;BME280;74649;52.358;17.020;2023-12-20T22:12:09;99437.63;;;11.08;51.89
64753;BME280;74649;52.358;17.020;2023-12-20T22:17:10;99435.09;;;11.05;52.05
64753;BME280;74649;52.358;17.020;2023-12-20T22:22:10;99426.34;;;11.05;52.13
64753;BME280;74649;52.358;17.020;2023-12-20T22:27:12;99428.19;;;11.03;51.96
64753;BME280;74649;52.358;17.020;2023-12-20T22:32:12;99419.50;;;11.01;52.07
64753;BME280;74649;52.358;17.020;2023-12-20T22:37:13;99414.22;;;11.01;51.85
64753;BME280;74649;52.358;17.020;2023-12-20T22:42:15;99404.59;;;11.00;52.05
64753;BME280;74649;52.358;17.020;2023-12-20T22:47:15;99396.75;;;10.98;51.91
64753;BME280;74649;52.358;17.020;2023-12-20T22:52:15;99389.84;;;10.96;52.01
64753;BME280;74649;52.358;17.020;2023-12-20T22:57:17;99386.34;;;10.95;52.04
64753;BME280;74649;52.358;17.020;2023-12-20T23:02:17;99384.63;;;10.94;52.10
64753;BME280;74649;52.358;17.020;2023-12-20T23:07:18;99361.81;;;10.93;52.11
64753;BME280;74649;52.358;17.020;2023-12-20T23:12:19;99362.75;;;10.92;52.22
64753;BME280;74649;52.358;17.020;2023-12-20T23:17:20;99353.97;;;10.91;52.16
64753;BME280;74649;52.358;17.020;2023-12-20T23:22:21;99332.16;;;10.88;52.22
64753;BME280;74649;52.358;17.020;2023-12-20T23:27:23;99336.50;;;10.89;52.27
64753;BME280;74649;52.358;17.020;2023-12-20T23:32:23;99337.44;;;10.88;52.25
64753;BME280;74649;52.358;17.020;2023-12-20T23:37:23;99336.59;;;10.87;52.14
64753;BME280;74649;52.358;17.020;2023-12-20T23:42:25;99327.91;;;10.85;52.29
64753;BME280;74649;52.358;17.020;2023-12-20T23:47:25;99322.69;;;10.84;52.21
64753;BME280;74649;52.358;17.020;2023-12-20T23:52:26;99307.81;;;10.83;52.11
64753;BME280;74649;52.358;17.020;2023-12-20T23:57:27;99299.97;;;10.81;52.27
